Time;durP1;ratioP1;P1;durP2;ratioP2;P2;SDS_P1;SDS_P2;PMS_P1;PMS_P2;Temp;Humidity;BMP_temperature;BMP_pressure;BME280_temperature;BME280_humidity;BME280_pressure;Samples;Min_cycle;Max_cycle;Signal;HPM_P1;HPM_P2
2023/09/28 00:01:17;;;;;;;8.18;4.90;;;;;;;17.93;93.15;101132.25;5023788;28;20021;-70
2023/09/28 00:03:43;;;;;;;;;;;;;;;18.05;91.96;101138.53;5024450;28;20075;-70
2023/09/28 00:06:08;;;;;;;6.32;5.65;;;;;;;17.98;93.65;101140.03;5023123;28;19949;-70
2023/09/28 00:08:33;;;;;;;7.50;6.05;;;;;;;17.96;93.67;101134.72;5022554;28;20028;-70
2023/09/28 00:10:59;;;;;;;6.45;5.40;;;;;;;17.98;92.51;101134.63;5022372;28;20031;-69
2023/09/28 00:13:25;;;;;;;8.25;5.47;;;;;;;17.94;92.49;101128.63;5023338;28;20022;-69
2023/09/28 00:15:50;;;;;;;6.10;5.28;;;;;;;17.98;92.54;101137.31;5023189;28;20472;-70
2023/09/28 00:18:15;;;;;;;9.07;5.82;;;;;;;17.96;92.72;101131.19;4997430;28;20026;-70
2023/09/28 00:20:41;;;;;;;6.65;5.15;;;;;;;17.95;92.92;101140.25;5018377;28;20037;-69
2023/09/28 00:23:06;;;;;;;6.28;5.68;;;;;;;17.89;92.83;101144.25;5022663;28;20040;-70
2023/09/28 00:25:32;;;;;;;6.93;5.95;;;;;;;17.71;94.19;101132.19;4988516;28;20042;-70
2023/09/28 00:27:57;;;;;;;6.43;4.95;;;;;;;17.76;94.45;101149.72;5003294;28;20072;-70
2023/09/28 00:30:26;;;;;;;7.53;4.45;;;;;;;17.76;93.42;101154.25;5003154;28;20056;-70
2023/09/28 00:32:56;;;;;;;5.97;4.40;;;;;;;17.72;95.10;101163.50;5003627;28;20133;-70
2023/09/28 00:35:22;;;;;;;5.35;4.00;;;;;;;17.69;95.46;101164.59;5001518;28;20017;-69
2023/09/28 00:37:48;;;;;;;5.00;4.30;;;;;;;17.68;94.39;101169.13;5002890;28;20103;-69
2023/09/28 00:40:18;;;;;;;6.30;4.20;;;;;;;17.65;94.46;101163.97;4988957;28;20025;-69
2023/09/28 00:42:45;;;;;;;5.47;4.15;;;;;;;17.65;94.61;101177.44;5004303;28;20463;-69
2023/09/28 00:45:11;;;;;;;4.72;3.92;;;;;;;17.61;95.22;101189.41;5003567;28;20025;-70
2023/09/28 00:47:40;;;;;;;7.10;3.50;;;;;;;17.56;95.25;101183.50;5003451;28;20022;-70
2023/09/28 00:50:16;;;;;;;6.40;4.25;;;;;;;17.52;95.08;101179.34;5003332;28;20389;-69
2023/09/28 00:52:43;;;;;;;5.53;3.90;;;;;;;17.52;95.27;101173.94;5003139;28;20030;-70
2023/09/28 00:55:11;;;;;;;4.30;3.58;;;;;;;17.48;95.51;101191.28;5003287;28;20080;-70
2023/09/28 00:57:38;;;;;;;5.53;3.78;;;;;;;17.44;95.74;101187.13;5002771;28;20127;-69
2023/09/28 01:02:51;;;;;;;7.15;3.70;;;;;;;17.43;95.98;101180.88;4992223;28;20033;-71
2023/09/28 01:05:34;;;;;;;4.75;3.38;;;;;;;17.38;96.83;101174.09;5002517;28;20109;-70
2023/09/28 01:08:12;;;;;;;4.47;3.92;;;;;;;17.39;96.55;101187.47;5003057;28;20026;-70
2023/09/28 01:10:38;;;;;;;5.20;4.22;;;;;;;17.37;96.67;101170.56;4994197;28;20088;-69
2023/09/28 01:13:11;;;;;;;4.13;3.72;;;;;;;17.33;96.91;101179.81;5002808;28;20018;-73
2023/09/28 01:15:46;;;;;;;5.93;4.00;;;;;;;17.35;97.11;101179.72;5002774;28;20186;-69
2023/09/28 01:18:15;;;;;;;4.63;3.88;;;;;;;17.34;97.79;101175.31;4998997;28;20104;-69
2023/09/28 01:20:41;;;;;;;4.78;3.80;;;;;;;17.32;97.51;101178.13;4997504;28;20488;-69
2023/09/28 01:23:07;;;;;;;5.40;3.80;;;;;;;17.33;97.67;101182.50;5002505;28;20096;-69
2023/09/28 01:25:33;;;;;;;8.00;4.10;;;;;;;17.36;97.74;101187.69;5017449;28;20041;-69
2023/09/28 01:27:59;;;;;;;4.65;3.78;;;;;;;17.30;97.70;101182.72;5022638;28;20499;-69
2023/09/28 01:30:26;;;;;;;5.28;4.13;;;;;;;17.22;98.82;101179.75;4990873;28;20363;-69
2023/09/28 01:32:52;;;;;;;4.93;4.40;;;;;;;17.18;98.84;101173.75;5022110;28;20044;-70
2023/09/28 01:35:18;;;;;;;5.43;4.63;;;;;;;17.09;100.00;101178.94;5022618;28;20189;-70
2023/09/28 01:38:19;;;;;;;6.40;4.28;;;;;;;17.11;98.93;101180.56;5026011;28;20029;-70
2023/09/28 01:40:47;;;;;;;5.78;4.32;;;;;;;16.99;100.00;101181.44;5026174;28;20034;-70
2023/09/28 01:43:12;;;;;;;5.28;3.95;;;;;;;16.94;100.00;101191.69;5026111;28;20181;-70
2023/09/28 01:45:38;;;;;;;4.57;4.18;;;;;;;16.91;100.00;101192.75;5025225;28;20032;-69
2023/09/28 01:48:04;;;;;;;5.95;3.90;;;;;;;16.90;100.00;101187.50;5025148;28;20067;-69
2023/09/28 01:50:33;;;;;;;6.18;4.13;;;;;;;16.89;100.00;101192.00;5024476;28;20087;-70
2023/09/28 01:52:58;;;;;;;5.22;3.72;;;;;;;16.92;100.00;101189.06;5025887;28;20045;-70
2023/09/28 01:55:24;;;;;;;3.58;3.20;;;;;;;16.87;100.00;101185.00;5025119;28;20330;-69
2023/09/28 01:57:49;;;;;;;5.25;4.32;;;;;;;16.87;100.00;101193.06;5025667;28;20256;-69
2023/09/28 02:00:18;;;;;;;5.38;4.35;;;;;;;16.90;100.00;101200.94;5025756;28;20033;-70
2023/09/28 02:02:44;;;;;;;5.05;4.00;;;;;;;16.80;100.00;101199.84;5026328;28;20049;-71
2023/09/28 02:05:12;;;;;;;4.43;3.80;;;;;;;16.76;100.00;101196.56;5025427;28;20060;-71
2023/09/28 02:07:38;;;;;;;4.85;3.92;;;;;;;16.76;100.00;101201.94;5025664;28;20516;-71
2023/09/28 02:10:04;;;;;;;4.53;3.92;;;;;;;16.76;100.00;101199.22;5026305;28;20025;-70
2023/09/28 02:12:30;;;;;;;4.03;3.63;;;;;;;16.73;100.00;101207.50;5025105;28;20017;-70
2023/09/28 02:14:56;;;;;;;6.97;4.18;;;;;;;16.72;100.00;101203.06;5025519;28;20026;-69
2023/09/28 02:17:21;;;;;;;4.65;3.97;;;;;;;16.75;100.00;101207.38;5025216;28;20650;-69
2023/09/28 02:19:50;;;;;;;7.00;4.03;;;;;;;16.65;100.00;101216.06;5007198;28;20342;-68
2023/09/28 02:22:15;;;;;;;5.05;4.00;;;;;;;16.55;100.00;101214.97;5025417;28;20025;-70
2023/09/28 02:24:41;;;;;;;5.53;4.00;;;;;;;16.49;100.00;101211.88;5025099;28;20589;-69
2023/09/28 02:27:06;;;;;;;6.65;4.00;;;;;;;16.38;100.00;101218.84;5024791;28;20548;-70
2023/09/28 02:29:32;;;;;;;4.13;3.72;;;;;;;16.34;100.00;101211.09;5024904;28;20033;-70
2023/09/28 02:31:58;;;;;;;5.07;4.38;;;;;;;16.38;100.00;101201.88;5025197;28;20097;-69
2023/09/28 02:34:25;;;;;;;5.05;4.20;;;;;;;16.40;100.00;101208.88;5014644;28;20053;-68
2023/09/28 02:36:50;;;;;;;6.03;3.95;;;;;;;16.33;100.00;101214.78;5021021;28;20037;-70
2023/09/28 02:39:16;;;;;;;5.05;3.90;;;;;;;16.36;100.00;101220.78;5025253;28;20031;-69
2023/09/28 02:41:41;;;;;;;5.15;4.18;;;;;;;16.43;100.00;101221.25;5024463;28;20100;-69
2023/09/28 02:44:06;;;;;;;5.45;3.95;;;;;;;16.46;100.00;101226.38;5025449;28;20404;-70
2023/09/28 02:46:32;;;;;;;4.85;4.30;;;;;;;16.50;100.00;101225.19;5024796;28;20029;-69
2023/09/28 02:48:57;;;;;;;4.97;4.32;;;;;;;16.46;100.00;101220.16;5024478;28;20029;-70
2023/09/28 02:51:23;;;;;;;5.50;4.20;;;;;;;16.48;100.00;101223.59;5024843;28;20029;-68
2023/09/28 02:53:48;;;;;;;5.10;4.35;;;;;;;16.50;100.00;101224.34;5024669;28;20029;-70
2023/09/28 02:56:14;;;;;;;4.72;4.28;;;;;;;16.48;100.00;101228.97;5025049;28;20037;-70
2023/09/28 02:58:40;;;;;;;5.38;4.10;;;;;;;16.46;100.00;101242.50;4993873;28;20026;-69
2023/09/28 03:01:06;;;;;;;5.75;4.28;;;;;;;16.44;100.00;101231.88;5024490;28;20025;-68
2023/09/28 03:03:31;;;;;;;4.30;3.90;;;;;;;16.38;100.00;101224.22;5024276;28;20394;-70
2023/09/28 03:05:58;;;;;;;6.00;4.50;;;;;;;16.36;100.00;101236.91;5024342;28;20380;-68
2023/09/28 03:08:24;;;;;;;4.85;4.20;;;;;;;16.25;100.00;101235.91;5024119;28;20053;-68
2023/09/28 03:10:53;;;;;;;5.10;4.20;;;;;;;16.19;100.00;101242.59;5024388;28;20029;-70
2023/09/28 03:13:19;;;;;;;4.90;4.38;;;;;;;16.14;100.00;101237.53;5011637;28;20100;-69
2023/09/28 03:15:45;;;;;;;5.00;4.30;;;;;;;16.12;100.00;101238.59;5024242;28;20075;-70
2023/09/28 03:18:11;;;;;;;5.55;4.57;;;;;;;16.09;100.00;101237.00;5023941;28;20025;-69
2023/09/28 03:20:37;;;;;;;6.85;4.75;;;;;;;16.09;100.00;101245.03;5023855;28;20029;-69
2023/09/28 03:23:04;;;;;;;6.03;4.82;;;;;;;15.98;100.00;101239.53;5023738;28;20481;-70
2023/09/28 03:25:30;;;;;;;6.72;5.80;;;;;;;15.97;100.00;101245.88;5023246;28;20123;-70
2023/09/28 03:27:56;;;;;;;6.78;5.40;;;;;;;15.90;100.00;101249.91;5023780;28;20044;-69
2023/09/28 03:30:24;;;;;;;7.78;6.50;;;;;;;15.88;100.00;101252.72;5023356;28;20072;-69
2023/09/28 03:32:49;;;;;;;8.43;6.85;;;;;;;15.82;100.00;101255.78;5022532;28;20237;-69
2023/09/28 03:35:16;;;;;;;6.13;5.55;;;;;;;15.78;100.00;101265.00;5023064;28;20029;-69
2023/09/28 03:37:43;;;;;;;8.18;5.65;;;;;;;15.76;100.00;101261.56;5023039;28;20029;-70
2023/09/28 03:40:11;;;;;;;8.85;5.68;;;;;;;15.71;100.00;101263.69;5022464;28;20251;-69
2023/09/28 03:42:41;;;;;;;6.05;5.20;;;;;;;15.67;100.00;101265.72;5023124;28;20087;-70
2023/09/28 03:45:08;;;;;;;8.65;5.82;;;;;;;15.66;100.00;101268.50;5022550;28;20354;-69
2023/09/28 03:47:37;;;;;;;7.43;5.57;;;;;;;15.66;100.00;101269.34;5022049;28;20022;-70
2023/09/28 03:50:04;;;;;;;7.95;6.03;;;;;;;15.63;100.00;101274.00;5022797;28;20105;-70
2023/09/28 03:52:30;;;;;;;6.30;5.32;;;;;;;15.67;100.00;101283.63;5022562;28;20096;-70
2023/09/28 03:54:56;;;;;;;7.95;5.88;;;;;;;15.63;100.00;101300.84;5022404;28;20112;-69
2023/09/28 03:57:22;;;;;;;6.68;5.90;;;;;;;15.56;100.00;101291.50;5022537;28;20028;-69
2023/09/28 03:59:47;;;;;;;6.32;5.15;;;;;;;15.57;100.00;101290.53;5023311;28;20033;-69
2023/09/28 04:02:13;;;;;;;6.70;5.38;;;;;;;15.52;100.00;101289.97;5022377;28;20017;-70
2023/09/28 04:04:38;;;;;;;6.18;4.95;;;;;;;15.50;100.00;101291.88;5023647;28;20351;-69
2023/09/28 04:07:04;;;;;;;6.80;5.00;;;;;;;15.49;100.00;101290.16;5022589;28;20530;-69
2023/09/28 04:09:29;;;;;;;6.18;5.57;;;;;;;15.47;100.00;101297.44;5022816;28;20499;-70
2023/09/28 04:11:55;;;;;;;8.75;5.85;;;;;;;15.45;100.00;101292.16;5022796;28;20033;-71
2023/09/28 04:14:22;;;;;;;6.07;5.20;;;;;;;15.44;100.00;101291.31;5022188;28;20022;-69
2023/09/28 04:16:47;;;;;;;8.05;5.43;;;;;;;15.45;100.00;101284.97;5012162;28;20539;-70
2023/09/28 04:19:13;;;;;;;6.03;5.40;;;;;;;15.43;100.00;101294.97;5016559;28;20091;-69
2023/09/28 04:21:38;;;;;;;6.80;5.10;;;;;;;15.41;100.00;101285.28;5022887;28;20333;-70
2023/09/28 04:24:04;;;;;;;8.45;5.22;;;;;;;15.41;100.00;101293.31;5022087;28;20044;-69
2023/09/28 04:26:29;;;;;;;6.70;5.35;;;;;;;15.37;100.00;101300.69;5022952;28;20017;-70
2023/09/28 04:28:55;;;;;;;9.60;5.10;;;;;;;15.33;100.00;101298.31;5022822;28;20505;-70
2023/09/28 04:31:20;;;;;;;9.20;5.80;;;;;;;15.30;100.00;101293.13;5022292;28;20053;-69
2023/09/28 04:33:45;;;;;;;5.90;5.13;;;;;;;15.27;100.00;101294.22;5022969;28;20092;-69
2023/09/28 04:36:11;;;;;;;6.57;5.57;;;;;;;15.28;100.00;101298.63;5022754;28;20523;-70
2023/09/28 04:38:36;;;;;;;6.57;5.68;;;;;;;15.23;100.00;101292.69;5022572;28;20060;-69
2023/09/28 04:41:03;;;;;;;6.13;5.32;;;;;;;15.19;100.00;101291.16;5022508;28;20511;-70
2023/09/28 04:43:29;;;;;;;7.93;6.13;;;;;;;15.20;100.00;101298.22;5022622;28;20120;-70
2023/09/28 04:45:55;;;;;;;9.55;6.57;;;;;;;15.15;100.00;101313.75;5022192;28;20105;-70
2023/09/28 04:48:21;;;;;;;6.82;6.13;;;;;;;15.12;100.00;101308.56;5023204;28;20117;-69
2023/09/28 04:50:47;;;;;;;6.95;5.85;;;;;;;15.14;100.00;101320.09;5023174;28;20032;-69
2023/09/28 04:53:12;;;;;;;10.55;6.10;;;;;;;15.11;100.00;101317.59;5022592;28;20083;-70
2023/09/28 04:55:38;;;;;;;7.47;5.70;;;;;;;15.10;100.00;101319.41;5022101;28;20037;-70
2023/09/28 04:58:04;;;;;;;7.18;5.88;;;;;;;15.12;100.00;101319.28;5022949;28;20021;-69
2023/09/28 05:00:29;;;;;;;8.90;5.97;;;;;;;15.14;100.00;101320.09;5021861;28;20025;-69
2023/09/28 05:02:54;;;;;;;6.35;5.32;;;;;;;15.08;100.00;101324.00;5022934;28;20260;-69
2023/09/28 05:05:23;;;;;;;7.75;5.93;;;;;;;15.07;100.00;101329.44;5022852;28;20492;-69
2023/09/28 05:07:48;;;;;;;7.43;5.68;;;;;;;15.01;100.00;101333.38;5023274;28;20095;-69
2023/09/28 05:10:14;;;;;;;10.13;6.53;;;;;;;15.01;100.00;101343.25;5024451;28;20307;-70
2023/09/28 05:12:39;;;;;;;8.85;6.00;;;;;;;15.00;100.00;101350.41;5028554;28;20274;-70
2023/09/28 05:15:06;;;;;;;11.70;5.75;;;;;;;14.96;100.00;101351.53;5026150;28;20030;-69
2023/09/28 05:17:31;;;;;;;8.85;6.25;;;;;;;14.94;100.00;101351.66;5025978;28;20029;-70
2023/09/28 05:19:57;;;;;;;6.53;5.50;;;;;;;14.90;100.00;101363.50;5026658;28;20048;-70
2023/09/28 05:22:22;;;;;;;9.07;5.97;;;;;;;14.88;100.00;101354.72;5026264;28;20025;-69
2023/09/28 05:24:48;;;;;;;9.98;6.50;;;;;;;14.83;100.00;101361.28;5026714;28;20499;-69
2023/09/28 05:27:13;;;;;;;8.38;6.03;;;;;;;14.80;100.00;101357.00;5026394;28;20037;-70
2023/09/28 05:29:39;;;;;;;8.55;6.03;;;;;;;14.79;100.00;101375.84;5025863;28;20383;-69
2023/09/28 05:32:05;;;;;;;7.88;5.55;;;;;;;14.74;100.00;101370.75;5026295;28;20116;-69
2023/09/28 05:34:31;;;;;;;9.63;6.40;;;;;;;14.80;100.00;101383.78;5025864;28;20030;-69
2023/09/28 05:36:56;;;;;;;8.80;5.95;;;;;;;14.77;100.00;101380.44;5025915;28;20099;-69
2023/09/28 05:39:21;;;;;;;9.43;6.03;;;;;;;14.81;100.00;101387.34;5026181;28;20033;-69
2023/09/28 05:41:47;;;;;;;7.82;5.93;;;;;;;14.81;100.00;101384.66;5026142;28;20101;-69
2023/09/28 05:44:13;;;;;;;8.75;6.00;;;;;;;14.79;100.00;101382.03;5025603;28;20476;-69
2023/09/28 05:46:39;;;;;;;9.55;6.00;;;;;;;14.76;100.00;101382.25;5025991;28;20098;-68
2023/09/28 05:49:05;;;;;;;8.48;6.00;;;;;;;14.79;100.00;101389.22;5026087;28;20057;-69
2023/09/28 05:51:30;;;;;;;7.55;5.30;;;;;;;14.77;100.00;101396.50;5025349;28;20614;-69
2023/09/28 05:53:55;;;;;;;6.65;5.20;;;;;;;14.75;100.00;101399.25;5025320;28;20034;-69
2023/09/28 05:56:21;;;;;;;9.13;6.15;;;;;;;14.73;100.00;101406.53;5026030;28;20030;-70
2023/09/28 05:58:47;;;;;;;9.23;5.40;;;;;;;14.75;100.00;101415.34;5025464;28;20029;-69
2023/09/28 06:01:13;;;;;;;10.20;6.25;;;;;;;14.73;100.00;101411.03;5025667;28;20064;-69
2023/09/28 06:03:39;;;;;;;10.80;5.72;;;;;;;14.74;100.00;101418.97;5025696;28;20033;-69
2023/09/28 06:06:18;;;;;;;9.25;5.45;;;;;;;14.78;100.00;101430.38;5026104;28;20021;-70
2023/09/28 06:08:46;;;;;;;9.63;5.53;;;;;;;14.79;100.00;101427.59;5025088;28;20032;-70
2023/09/28 06:11:16;;;;;;;11.25;5.82;;;;;;;14.82;100.00;101442.66;5024695;28;20037;-70
2023/09/28 06:13:42;;;;;;;10.93;5.63;;;;;;;14.83;100.00;101436.34;5025488;28;20309;-70
2023/09/28 06:16:11;;;;;;;10.27;5.10;;;;;;;14.92;100.00;101427.75;5024940;28;20250;-69
2023/09/28 06:18:36;;;;;;;11.98;5.53;;;;;;;14.93;100.00;101416.94;5025482;28;20107;-69
2023/09/28 06:21:02;;;;;;;9.82;5.03;;;;;;;14.97;100.00;101419.44;5024811;28;20017;-69
2023/09/28 06:23:27;;;;;;;8.82;4.82;;;;;;;14.97;100.00;101414.09;5024946;28;20482;-69
2023/09/28 06:25:53;;;;;;;10.25;5.28;;;;;;;15.01;100.00;101415.63;5024300;28;20045;-70
2023/09/28 06:28:21;;;;;;;9.25;4.70;;;;;;;15.03;100.00;101427.09;5025659;28;20021;-68
2023/09/28 06:30:47;;;;;;;13.18;5.65;;;;;;;15.03;100.00;101435.16;5005730;28;20022;-69
2023/09/28 06:33:13;;;;;;;16.10;6.68;;;;;;;15.15;100.00;101445.13;5017246;28;20060;-69
2023/09/28 06:35:38;;;;;;;11.18;5.63;;;;;;;15.24;100.00;101447.25;5024398;28;20021;-69
2023/09/28 06:38:04;;;;;;;11.98;5.18;;;;;;;15.35;100.00;101447.47;5025109;28;20597;-69
2023/09/28 06:40:29;;;;;;;12.18;5.25;;;;;;;15.48;100.00;101446.72;5024543;28;20549;-69
2023/09/28 06:42:55;;;;;;;10.98;5.18;;;;;;;15.61;100.00;101439.63;5024736;28;20502;-69
2023/09/28 06:45:20;;;;;;;13.48;5.30;;;;;;;15.77;100.00;101447.63;5025120;28;20399;-70
2023/09/28 06:47:45;;;;;;;9.43;4.90;;;;;;;15.91;100.00;101447.59;5024671;28;20018;-69
2023/09/28 06:50:11;;;;;;;9.32;5.25;;;;;;;16.07;100.00;101453.72;5024488;28;20739;-70
2023/09/28 06:52:37;;;;;;;10.65;5.35;;;;;;;16.19;100.00;101439.50;5024705;28;20021;-70
2023/09/28 06:55:07;;;;;;;9.05;4.68;;;;;;;16.21;100.00;101451.94;5024286;28;20026;-70
2023/09/28 06:57:33;;;;;;;11.35;6.07;;;;;;;16.17;100.00;101462.03;5025072;28;20032;-70
2023/09/28 06:59:58;;;;;;;15.55;4.85;;;;;;;16.13;100.00;101469.41;5024601;28;20508;-70
2023/09/28 07:02:23;;;;;;;13.30;5.40;;;;;;;16.13;100.00;101476.63;5024528;28;20041;-70
2023/09/28 07:04:49;;;;;;;14.40;6.18;;;;;;;16.16;100.00;101466.53;5024699;28;20035;-70
2023/09/28 07:07:17;;;;;;;10.55;5.07;;;;;;;16.26;100.00;101465.94;5024086;28;20105;-70
2023/09/28 07:09:46;;;;;;;10.10;4.95;;;;;;;16.36;100.00;101478.69;5023989;28;20025;-70
2023/09/28 07:12:11;;;;;;;13.20;5.25;;;;;;;16.54;100.00;101481.13;5024651;28;20030;-70
2023/09/28 07:14:36;;;;;;;9.35;5.50;;;;;;;16.72;100.00;101479.03;5024112;28;20036;-70
2023/09/28 07:17:03;;;;;;;10.88;5.22;;;;;;;16.81;100.00;101467.75;5024133;28;20103;-70
2023/09/28 07:19:28;;;;;;;10.65;4.60;;;;;;;16.85;100.00;101471.94;5023761;28;20040;-70
2023/09/28 07:21:54;;;;;;;10.68;4.90;;;;;;;16.82;100.00;101473.00;5024241;28;20033;-70
2023/09/28 07:24:21;;;;;;;11.60;5.07;;;;;;;16.79;100.00;101483.09;5024037;28;20103;-70
2023/09/28 07:26:46;;;;;;;14.20;5.07;;;;;;;16.71;100.00;101483.56;5024209;28;20504;-70
2023/09/28 07:29:12;;;;;;;12.77;5.05;;;;;;;16.65;100.00;101474.09;5024199;28;20201;-69
2023/09/28 07:31:38;;;;;;;17.42;5.50;;;;;;;16.59;100.00;101473.63;5024558;28;20207;-70
2023/09/28 07:34:04;;;;;;;15.52;4.70;;;;;;;16.64;100.00;101476.91;5023264;28;20025;-71
2023/09/28 07:36:29;;;;;;;16.05;4.75;;;;;;;16.79;100.00;101485.78;5023460;28;20395;-70
2023/09/28 07:38:54;;;;;;;16.35;4.65;;;;;;;16.99;100.00;101497.91;5023101;28;20458;-70
2023/09/28 07:41:20;;;;;;;13.93;4.72;;;;;;;17.15;100.00;101499.44;5023911;28;20029;-69
2023/09/28 07:43:46;;;;;;;16.50;4.85;;;;;;;17.55;99.73;101501.19;5023340;28;20026;-70
2023/09/28 07:46:13;;;;;;;17.20;4.95;;;;;;;18.17;97.42;101504.84;5022132;28;20035;-69
2023/09/28 07:48:38;;;;;;;15.07;4.53;;;;;;;18.42;93.11;101508.47;5022849;28;20029;-69
2023/09/28 07:51:04;;;;;;;12.48;4.35;;;;;;;18.73;90.95;101515.19;5022741;28;20087;-70
2023/09/28 07:53:30;;;;;;;15.48;4.90;;;;;;;19.13;89.70;101507.63;5022642;28;20053;-70
2023/09/28 07:55:56;;;;;;;12.10;4.15;;;;;;;19.41;85.02;101510.91;5022815;28;20109;-71
2023/09/28 07:58:22;;;;;;;16.42;4.63;;;;;;;19.61;84.70;101517.50;5023308;28;20104;-69
2023/09/28 08:00:49;;;;;;;16.75;4.63;;;;;;;19.81;83.68;101510.50;4999542;28;20038;-70
2023/09/28 08:03:15;;;;;;;14.43;4.40;;;;;;;20.21;82.60;101510.88;5015206;28;20041;-70
2023/09/28 08:05:40;;;;;;;17.40;4.82;;;;;;;20.69;79.38;101524.09;5023040;28;20045;-70
2023/09/28 08:08:06;;;;;;;15.88;4.68;;;;;;;20.79;76.52;101519.66;5023040;28;20504;-71
2023/09/28 08:10:32;;;;;;;18.25;4.45;;;;;;;20.93;75.98;101532.03;5014612;28;20045;-72
2023/09/28 08:12:59;;;;;;;14.13;4.40;;;;;;;21.04;75.01;101537.41;5023227;28;20150;-72
2023/09/28 08:15:24;;;;;;;13.95;4.30;;;;;;;21.20;74.26;101534.25;5023389;28;20021;-71
2023/09/28 08:17:50;;;;;;;14.27;4.30;;;;;;;21.11;73.11;101535.06;5023623;28;20021;-69
2023/09/28 08:20:16;;;;;;;17.02;4.38;;;;;;;21.19;72.33;101534.38;5023171;28;20383;-69
2023/09/28 08:22:42;;;;;;;16.50;4.60;;;;;;;21.32;72.61;101533.25;5022600;28;20341;-69
2023/09/28 08:25:07;;;;;;;13.85;4.47;;;;;;;21.72;70.46;101537.94;5022768;28;20215;-70
2023/09/28 08:27:33;;;;;;;15.23;4.57;;;;;;;21.95;68.18;101535.94;5023116;28;20013;-70
2023/09/28 08:29:59;;;;;;;16.10;3.97;;;;;;;22.06;67.04;101537.69;5022422;28;20563;-70
2023/09/28 08:32:24;;;;;;;15.77;4.05;;;;;;;22.16;66.40;101535.91;5023093;28;20522;-70
2023/09/28 08:34:49;;;;;;;14.07;4.28;;;;;;;22.24;65.80;101541.50;5023163;28;20518;-70
2023/09/28 08:37:15;;;;;;;14.48;3.58;;;;;;;22.32;64.26;101543.50;5022151;28;20121;-71
2023/09/28 08:39:40;;;;;;;13.77;4.13;;;;;;;22.31;65.03;101539.94;5022423;28;20484;-71
2023/09/28 08:42:12;;;;;;;16.83;4.57;;;;;;;22.84;64.63;101546.94;5022665;28;20017;-70
2023/09/28 08:44:40;;;;;;;13.95;4.13;;;;;;;23.14;61.74;101543.28;5022752;28;20021;-72
2023/09/28 08:47:15;;;;;;;16.52;4.53;;;;;;;23.15;62.96;101563.16;5021991;28;20037;-69
2023/09/28 08:49:43;;;;;;;15.30;4.38;;;;;;;22.90;61.63;101567.22;5021952;28;20155;-72
2023/09/28 08:52:10;;;;;;;10.88;3.75;;;;;;;22.68;62.98;101563.75;5000547;28;20113;-70
2023/09/28 08:54:36;;;;;;;11.63;3.90;;;;;;;23.05;61.08;101563.16;5021726;28;20083;-71
2023/09/28 08:57:02;;;;;;;14.35;4.13;;;;;;;23.19;60.39;101564.56;5021751;28;20480;-70
2023/09/28 08:59:30;;;;;;;15.05;3.95;;;;;;;23.49;60.16;101580.75;5021626;28;20109;-69
2023/09/28 09:01:57;;;;;;;15.00;4.10;;;;;;;23.78;57.29;101582.56;5003738;28;20542;-70
2023/09/28 09:04:22;;;;;;;11.18;3.83;;;;;;;23.64;58.37;101581.13;5001506;28;20104;-71
2023/09/28 09:06:48;;;;;;;12.85;3.78;;;;;;;23.22;58.92;101580.59;5016852;28;20112;-71
2023/09/28 09:09:18;;;;;;;12.55;3.92;;;;;;;22.49;59.92;101580.88;5004604;28;20282;-70
2023/09/28 09:11:52;;;;;;;15.70;4.30;;;;;;;22.46;62.22;101589.28;5016450;28;20097;-70
2023/09/28 09:14:19;;;;;;;16.35;3.83;;;;;;;22.56;60.73;101579.28;5022480;28;20206;-69
2023/09/28 09:16:45;;;;;;;19.98;4.88;;;;;;;23.15;59.74;101579.44;5022654;28;20414;-69
2023/09/28 09:19:14;;;;;;;18.58;4.28;;;;;;;23.04;60.16;101581.31;5022300;28;20018;-70
2023/09/28 09:21:42;;;;;;;15.10;3.83;;;;;;;23.43;59.97;101584.03;5022185;28;20031;-70
2023/09/28 09:24:11;;;;;;;12.90;4.20;;;;;;;24.51;55.59;101585.53;5022623;28;20053;-71
2023/09/28 09:26:39;;;;;;;11.48;3.70;;;;;;;24.82;54.55;101584.19;5022166;28;20480;-71
2023/09/28 09:29:05;;;;;;;14.38;3.97;;;;;;;24.82;54.13;101584.19;5021987;28;20507;-71
2023/09/28 09:31:31;;;;;;;12.88;3.90;;;;;;;25.53;53.59;101585.25;5022227;28;20034;-70
2023/09/28 09:33:56;;;;;;;15.38;3.72;;;;;;;26.01;50.79;101592.13;5021740;28;20030;-70
2023/09/28 09:36:21;;;;;;;11.30;3.55;;;;;;;26.52;51.00;101590.38;5022280;28;20038;-69
2023/09/28 09:38:50;;;;;;;13.10;4.03;;;;;;;26.64;49.23;101596.41;5022444;28;20029;-71
2023/09/28 09:41:16;;;;;;;12.50;3.75;;;;;;;26.44;48.87;101603.94;5022287;28;20083;-70
2023/09/28 09:43:41;;;;;;;11.15;3.75;;;;;;;26.35;47.50;101594.88;4999525;28;20044;-70
2023/09/28 09:46:08;;;;;;;12.82;3.80;;;;;;;26.12;48.91;101589.09;5014456;28;20017;-70
2023/09/28 09:48:43;;;;;;;9.65;3.50;;;;;;;26.19;48.87;101601.09;5022150;28;20029;-70
2023/09/28 09:51:15;;;;;;;12.07;3.45;;;;;;;26.20;47.89;101600.06;5004131;28;20040;-71
2023/09/28 09:53:42;;;;;;;10.68;3.63;;;;;;;26.72;46.50;101607.34;5022196;28;20048;-70
2023/09/28 09:56:09;;;;;;;10.88;3.50;;;;;;;27.48;44.28;101599.00;5022144;28;20441;-69
2023/09/28 09:58:47;;;;;;;12.90;3.60;;;;;;;27.76;44.68;101606.88;5004477;28;20034;-69
2023/09/28 10:01:14;;;;;;;12.50;3.35;;;;;;;28.65;42.03;101608.56;5025704;28;20341;-70
2023/09/28 10:03:50;;;;;;;12.27;3.53;;;;;;;29.00;41.06;101614.56;5025264;28;20028;-70
2023/09/28 10:06:18;;;;;;;13.15;3.47;;;;;;;29.19;40.50;101603.16;5025035;28;20037;-70
2023/09/28 10:08:45;;;;;;;12.15;3.53;;;;;;;29.81;38.67;101601.31;5025585;28;20155;-70
2023/09/28 10:11:12;;;;;;;10.48;3.25;;;;;;;30.33;37.44;101593.03;5024941;28;20085;-71
2023/09/28 10:13:38;;;;;;;12.73;3.05;;;;;;;30.49;36.78;101600.25;5025453;28;20373;-69
2023/09/28 10:16:05;;;;;;;10.57;3.47;;;;;;;30.52;36.74;101586.13;5024865;28;20142;-70
2023/09/28 10:18:34;;;;;;;10.68;3.78;;;;;;;31.06;35.79;101588.50;5024796;28;20034;-70
2023/09/28 10:21:00;;;;;;;10.18;3.45;;;;;;;31.56;35.41;101577.56;5025100;28;20030;-71
2023/09/28 10:23:26;;;;;;;12.57;3.30;;;;;;;30.94;35.67;101579.06;5025583;28;20021;-71
2023/09/28 10:25:59;;;;;;;14.02;4.05;;;;;;;30.35;38.15;101571.75;5007825;28;20067;-71
2023/09/28 10:28:24;;;;;;;8.63;3.38;;;;;;;30.13;37.38;101565.25;5025831;28;20132;-69
2023/09/28 10:31:05;;;;;;;11.05;3.20;;;;;;;29.20;39.67;101574.69;5025001;28;20155;-69
2023/09/28 10:33:33;;;;;;;11.18;3.60;;;;;;;29.12;40.14;101566.53;5024396;28;20039;-70
2023/09/28 10:36:13;;;;;;;13.25;4.50;;;;;;;30.25;39.32;101562.94;5025212;28;20028;-69
2023/09/28 10:38:41;;;;;;;10.75;3.90;;;;;;;31.14;36.32;101568.25;5025011;28;20423;-70
2023/09/28 10:41:06;;;;;;;10.48;3.65;;;;;;;31.70;35.33;101571.13;5024840;28;20044;-71
2023/09/28 10:43:43;;;;;;;13.25;3.40;;;;;;;31.13;36.84;101581.16;5024902;28;20460;-70
2023/09/28 10:46:08;;;;;;;10.38;3.45;;;;;;;30.88;35.65;101583.41;5025282;28;20037;-71
2023/09/28 10:48:45;;;;;;;13.35;3.58;;;;;;;31.03;37.38;101572.38;5024382;28;20018;-71
2023/09/28 10:51:12;;;;;;;10.75;3.15;;;;;;;30.92;35.77;101572.88;5024752;28;20535;-71
2023/09/28 10:53:37;;;;;;;12.95;4.18;;;;;;;29.74;36.53;101585.56;5024757;28;20111;-70
2023/09/28 10:56:06;;;;;;;9.13;3.35;;;;;;;28.21;39.00;101589.84;5023945;28;20109;-70
2023/09/28 10:58:33;;;;;;;13.27;3.63;;;;;;;27.36;41.69;101591.28;5024313;28;20025;-70
2023/09/28 11:01:04;;;;;;;7.88;3.08;;;;;;;27.39;42.11;101585.50;5011645;28;20021;-70
2023/09/28 11:03:33;;;;;;;9.70;3.08;;;;;;;26.93;43.22;101582.31;5024499;28;20022;-70
2023/09/28 11:06:03;;;;;;;9.25;3.50;;;;;;;26.22;45.13;101584.41;5024541;28;20081;-70
2023/09/28 11:08:30;;;;;;;15.05;3.92;;;;;;;25.75;46.32;101584.75;5022706;28;20037;-70
2023/09/28 11:11:01;;;;;;;12.18;4.55;;;;;;;25.58;46.66;101596.53;5024455;28;20208;-70
2023/09/28 11:13:27;;;;;;;12.68;3.08;;;;;;;25.69;47.47;101599.00;5024488;28;20032;-70
2023/09/28 11:15:53;;;;;;;13.80;3.90;;;;;;;26.11;46.75;101600.19;5023915;28;20472;-69
2023/09/28 11:18:20;;;;;;;10.77;3.35;;;;;;;26.92;45.76;101596.97;5024135;28;20427;-70